Princeton, Missouri
Current Conditions -  °F | °C
As of 4:19 AM on Thursday 29 Jan 2015 (Local Time) from KLWD Reporting Station
Overcast Overcast  
Wind Chill: 26°   Ceiling: 1500
Heat Index: 37°   Visibility: 10mi
Dew Point: 31°   Wind: 23mph
Humidity: 79%   Direction: 330°NNW
Pressure: 30.01"   Gusts: 35mph
Location:  40.4°N, 93.58°W
Report Text: KLWD 291019Z AUTO 33020G30KT 10SM OVC015 03/M01 A3001 RMK AO2 PK WND 32036/0958 T00281006
Loading
Personal Weather Stations






























Interactive Weather Map New forecast layout! Learn more

10-Day Weather Forecast

Advertisements
Track Severe Weather on mobile